Time;durP1;ratioP1;P1;durP2;ratioP2;P2;SDS_P1;SDS_P2;PMS_P1;PMS_P2;Temp;Humidity;BMP_temperature;BMP_pressure;BME280_temperature;BME280_humidity;BME280_pressure;Samples;Min_cycle;Max_cycle;Signal;HPM_P1;HPM_P2
2022/10/23 00:01:27;;;;;;;13.65;8.75;;;;;;;;;;5080051;28;20024;-75
2022/10/23 00:03:56;;;;;;;16.67;8.75;;;;;;;;;;5079942;28;20020;-75
2022/10/23 00:06:21;;;;;;;13.23;8.43;;;;;;;;;;5079408;28;20052;-75
2022/10/23 00:08:48;;;;;;;16.63;8.27;;;;;;;;;;5080114;28;20020;-75
2022/10/23 00:11:17;;;;;;;14.55;7.93;;;;;;;;;;5081100;28;20064;-75
2022/10/23 00:13:43;;;;;;;12.40;8.15;;;;;;;;;;5078194;28;20068;-75
2022/10/23 00:16:08;;;;;;;13.52;8.65;;;;;;;;;;5074734;28;20031;-75
2022/10/23 00:18:34;;;;;;;13.02;8.30;;;;;;;;;;5073588;28;20028;-75
2022/10/23 00:21:01;;;;;;;13.07;7.88;;;;;;;;;;5073967;28;20024;-75
2022/10/23 00:23:26;;;;;;;13.82;8.00;;;;;;;;;;5073571;28;20020;-75
2022/10/23 00:25:51;;;;;;;13.88;8.00;;;;;;;;;;5073614;28;20115;-75
2022/10/23 00:28:16;;;;;;;12.90;8.10;;;;;;;;;;5073516;28;20031;-75
2022/10/23 00:30:42;;;;;;;13.38;7.72;;;;;;;;;;5072272;28;20466;-75
2022/10/23 00:33:09;;;;;;;12.15;7.47;;;;;;;;;;5073574;28;20032;-75
2022/10/23 00:35:34;;;;;;;12.20;8.05;;;;;;;;;;5073762;28;20104;-76
2022/10/23 00:37:59;;;;;;;14.10;7.65;;;;;;;;;;5072085;28;20116;-75
2022/10/23 00:40:25;;;;;;;12.80;8.23;;;;;;;;;;5073658;28;20024;-75
2022/10/23 00:42:50;;;;;;;16.85;7.43;;;;;;;;;;5073808;28;20016;-75
2022/10/23 00:45:25;;;;;;;12.57;7.85;;;;;;;;;;5073468;28;20024;-75
2022/10/23 00:47:52;;;;;;;10.50;7.28;;;;;;;;;;5072974;28;20095;-75
2022/10/23 00:50:18;;;;;;;14.85;7.25;;;;;;;;;;5073523;28;20056;-75
2022/10/23 00:52:49;;;;;;;12.50;7.68;;;;;;;;;;5073056;28;20028;-76
2022/10/23 00:55:19;;;;;;;14.48;7.80;;;;;;;;;;5073182;28;20078;-76
2022/10/23 00:57:47;;;;;;;13.30;8.00;;;;;;;;;;5073026;28;20070;-75
2022/10/23 01:00:28;;;;;;;13.82;7.68;;;;;;;;;;5073508;28;20382;-76
2022/10/23 01:02:56;;;;;;;15.10;8.00;;;;;;;;;;5072000;28;20044;-75
2022/10/23 01:05:27;;;;;;;12.93;7.40;;;;;;;;;;5073345;28;20542;-75
2022/10/23 01:08:10;;;;;;;12.13;7.45;;;;;;;;;;5073022;28;20024;-75
2022/10/23 01:10:44;;;;;;;11.77;7.70;;;;;;;;;;5071805;28;20395;-76
2022/10/23 01:13:22;;;;;;;;;;;;;;;;;;5073411;28;20062;-75
2022/10/23 01:15:55;;;;;;;14.45;7.43;;;;;;;;;;5073129;28;19950;-75
2022/10/23 01:18:30;;;;;;;14.65;8.48;;;;;;;;;;5072883;28;20162;-76
2022/10/23 01:21:08;;;;;;;12.48;7.97;;;;;;;;;;5071726;28;20029;-75
2022/10/23 01:24:00;;;;;;;11.73;7.78;;;;;;;;;;5073028;28;20043;-75
2022/10/23 01:26:40;;;;;;;15.02;7.57;;;;;;;;;;5071744;28;20481;-74
2022/10/23 01:29:08;;;;;;;12.85;8.23;;;;;;;;;;5072813;28;20025;-75
2022/10/23 01:31:38;;;;;;;11.90;8.02;;;;;;;;;;5072765;28;20103;-75
2022/10/23 01:34:14;;;;;;;13.88;8.30;;;;;;;;;;5072934;28;20115;-75
2022/10/23 01:36:45;;;;;;;14.23;8.43;;;;;;;;;;5072298;28;20111;-74
2022/10/23 01:39:20;;;;;;;14.25;8.02;;;;;;;;;;5071402;28;20051;-75
2022/10/23 01:41:51;;;;;;;13.70;8.13;;;;;;;;;;5071413;28;20442;-75
2022/10/23 01:44:25;;;;;;;14.05;7.88;;;;;;;;;;5073049;28;20041;-75
2022/10/23 01:46:52;;;;;;;13.52;8.15;;;;;;;;;;5072699;28;20020;-75
2022/10/23 01:49:19;;;;;;;14.20;8.52;;;;;;;;;;5073149;28;20044;-76
2022/10/23 01:51:49;;;;;;;14.05;7.70;;;;;;;;;;5071136;28;20032;-75
2022/10/23 01:54:18;;;;;;;12.38;7.80;;;;;;;;;;5072538;28;20487;-75
2022/10/23 01:56:47;;;;;;;11.63;8.20;;;;;;;;;;5072759;28;20074;-75
2022/10/23 01:59:16;;;;;;;11.27;7.65;;;;;;;;;;5074280;28;20032;-75
2022/10/23 02:01:46;;;;;;;21.05;8.00;;;;;;;;;;5075004;28;20024;-75
2022/10/23 02:04:17;;;;;;;13.65;8.27;;;;;;;;;;5076227;28;20023;-75
2022/10/23 02:06:42;;;;;;;14.35;7.57;;;;;;;;;;5076801;28;20043;-74
2022/10/23 02:09:07;;;;;;;14.38;8.27;;;;;;;;;;5076396;28;20020;-73
2022/10/23 02:11:40;;;;;;;12.00;7.82;;;;;;;;;;5076434;28;20028;-75
2022/10/23 02:14:15;;;;;;;15.43;7.30;;;;;;;;;;5076375;28;20016;-75
2022/10/23 02:16:58;;;;;;;15.52;7.80;;;;;;;;;;5076094;28;20509;-75
2022/10/23 02:19:34;;;;;;;13.20;7.90;;;;;;;;;;5075866;28;20035;-74
2022/10/23 02:22:08;;;;;;;13.13;7.93;;;;;;;;;;5075832;28;20024;-75
2022/10/23 02:24:54;;;;;;;15.25;7.85;;;;;;;;;;5075926;28;20029;-74
2022/10/23 02:27:27;;;;;;;11.05;7.15;;;;;;;;;;5075833;28;20400;-75
2022/10/23 02:30:02;;;;;;;15.30;7.35;;;;;;;;;;5075796;28;20033;-75
2022/10/23 02:32:27;;;;;;;11.65;7.18;;;;;;;;;;5076096;28;20033;-74
2022/10/23 02:34:53;;;;;;;11.75;7.40;;;;;;;;;;5075986;28;20031;-75
2022/10/23 02:37:18;;;;;;;17.42;7.75;;;;;;;;;;5076258;28;20035;-75
2022/10/23 02:39:44;;;;;;;13.90;8.00;;;;;;;;;;5075779;28;20035;-75
2022/10/23 02:42:33;;;;;;;12.93;7.65;;;;;;;;;;5075757;28;20024;-75
2022/10/23 02:45:24;;;;;;;15.18;7.60;;;;;;;;;;5075537;28;20025;-75
2022/10/23 02:48:03;;;;;;;13.80;7.60;;;;;;;;;;5075530;28;20443;-75
2022/10/23 02:50:56;;;;;;;14.02;7.60;;;;;;;;;;5075310;28;20107;-75
2022/10/23 02:53:36;;;;;;;13.45;8.20;;;;;;;;;;5056243;28;20115;-74
2022/10/23 02:56:35;;;;;;;15.20;8.23;;;;;;;;;;5075403;28;20103;-75
2022/10/23 02:59:21;;;;;;;12.93;8.02;;;;;;;;;;5075060;28;20056;-75
2022/10/23 03:01:53;;;;;;;13.48;7.72;;;;;;;;;;5073836;28;20032;-75
2022/10/23 03:04:22;;;;;;;13.38;7.22;;;;;;;;;;5075472;28;20028;-75
2022/10/23 03:06:49;;;;;;;15.73;8.15;;;;;;;;;;5075071;28;20469;-74
2022/10/23 03:09:14;;;;;;;11.23;7.10;;;;;;;;;;5074349;28;20021;-75
2022/10/23 03:11:40;;;;;;;15.38;8.25;;;;;;;;;;5075015;28;20029;-74
2022/10/23 03:14:05;;;;;;;11.25;7.30;;;;;;;;;;5074855;28;20083;-74
2022/10/23 03:16:30;;;;;;;13.90;7.80;;;;;;;;;;5074942;28;20036;-75
2022/10/23 03:18:56;;;;;;;17.17;8.00;;;;;;;;;;5074818;28;20111;-75
2022/10/23 03:21:21;;;;;;;11.82;7.75;;;;;;;;;;5074851;28;20078;-75
2022/10/23 03:23:46;;;;;;;13.48;7.97;;;;;;;;;;5074703;28;20033;-75
2022/10/23 03:26:11;;;;;;;12.45;7.43;;;;;;;;;;5073531;28;20021;-75
2022/10/23 03:28:37;;;;;;;14.70;7.88;;;;;;;;;;5074638;28;20471;-75
2022/10/23 03:31:03;;;;;;;13.13;7.68;;;;;;;;;;5074705;28;20032;-75
2022/10/23 03:33:29;;;;;;;12.13;7.72;;;;;;;;;;5073306;28;20024;-75
2022/10/23 03:35:54;;;;;;;12.20;7.68;;;;;;;;;;5074554;28;20435;-76
2022/10/23 03:38:19;;;;;;;13.30;8.00;;;;;;;;;;5074378;28;20047;-75
2022/10/23 03:40:45;;;;;;;19.38;8.38;;;;;;;;;;5073169;28;20078;-75
2022/10/23 03:43:10;;;;;;;15.40;7.53;;;;;;;;;;5074399;28;20090;-75
2022/10/23 03:45:37;;;;;;;13.18;7.95;;;;;;;;;;5073074;28;20067;-75
2022/10/23 03:48:05;;;;;;;11.82;7.50;;;;;;;;;;5074336;28;20489;-74
2022/10/23 03:50:30;;;;;;;16.35;7.75;;;;;;;;;;5074088;28;20406;-74
2022/10/23 03:52:56;;;;;;;12.85;8.00;;;;;;;;;;5074652;28;20099;-75
2022/10/23 03:55:21;;;;;;;12.43;7.45;;;;;;;;;;5074472;28;20055;-75
2022/10/23 03:57:47;;;;;;;13.30;7.90;;;;;;;;;;5072653;28;20024;-74
2022/10/23 04:00:12;;;;;;;18.33;8.88;;;;;;;;;;5074017;28;20101;-75
2022/10/23 04:02:38;;;;;;;15.52;8.73;;;;;;;;;;5074279;28;20465;-75
2022/10/23 04:05:03;;;;;;;16.35;8.07;;;;;;;;;;5072773;28;20111;-75
2022/10/23 04:07:29;;;;;;;16.63;8.02;;;;;;;;;;5072698;28;20024;-76
2022/10/23 04:09:54;;;;;;;13.27;8.13;;;;;;;;;;5073844;28;20021;-75
2022/10/23 04:12:19;;;;;;;13.68;8.20;;;;;;;;;;5074014;28;20069;-76
2022/10/23 04:14:44;;;;;;;14.23;7.97;;;;;;;;;;5073755;28;20401;-74
2022/10/23 04:17:10;;;;;;;11.93;7.55;;;;;;;;;;5074059;28;20350;-74
2022/10/23 04:19:35;;;;;;;13.77;7.78;;;;;;;;;;5072399;28;20112;-74
2022/10/23 04:22:00;;;;;;;11.98;7.65;;;;;;;;;;5073270;28;20373;-76
2022/10/23 04:24:26;;;;;;;13.95;8.00;;;;;;;;;;5073611;28;20040;-74
2022/10/23 04:26:51;;;;;;;13.90;7.20;;;;;;;;;;5073529;28;20016;-75
2022/10/23 04:29:17;;;;;;;15.93;8.18;;;;;;;;;;5073803;28;20017;-74
2022/10/23 04:31:42;;;;;;;15.23;7.93;;;;;;;;;;5073490;28;20550;-75
2022/10/23 04:34:08;;;;;;;15.77;7.80;;;;;;;;;;5073370;28;20032;-75
2022/10/23 04:36:33;;;;;;;15.82;7.72;;;;;;;;;;5073690;28;20020;-75
2022/10/23 04:38:58;;;;;;;17.40;7.53;;;;;;;;;;5073835;28;20024;-74
2022/10/23 04:41:24;;;;;;;17.67;8.13;;;;;;;;;;5073422;28;20020;-75
2022/10/23 04:43:49;;;;;;;13.70;7.93;;;;;;;;;;5073415;28;20116;-75
2022/10/23 04:46:14;;;;;;;12.95;7.60;;;;;;;;;;5073504;28;20043;-75
2022/10/23 04:48:39;;;;;;;18.30;7.97;;;;;;;;;;5073279;28;20016;-75
2022/10/23 04:51:05;;;;;;;18.27;7.97;;;;;;;;;;5073048;28;20489;-75
2022/10/23 04:53:31;;;;;;;14.13;8.18;;;;;;;;;;5073291;28;20134;-75
2022/10/23 04:55:57;;;;;;;15.55;8.63;;;;;;;;;;5073167;28;20104;-75
2022/10/23 04:58:25;;;;;;;14.88;8.13;;;;;;;;;;5073116;28;20036;-75
2022/10/23 05:00:50;;;;;;;13.23;7.72;;;;;;;;;;5073093;28;20496;-75
2022/10/23 05:03:16;;;;;;;13.27;7.15;;;;;;;;;;5072985;28;20032;-75
2022/10/23 05:05:42;;;;;;;15.48;8.25;;;;;;;;;;5073056;28;20024;-76
2022/10/23 05:08:08;;;;;;;14.48;8.13;;;;;;;;;;5073195;28;20519;-75
2022/10/23 05:10:33;;;;;;;13.60;8.23;;;;;;;;;;5071700;28;20112;-75
2022/10/23 05:12:58;;;;;;;13.43;7.75;;;;;;;;;;5072879;28;20116;-74
2022/10/23 05:15:24;;;;;;;19.55;8.45;;;;;;;;;;5072977;28;20032;-75
2022/10/23 05:17:54;;;;;;;14.85;8.13;;;;;;;;;;5072875;28;20028;-76
2022/10/23 05:20:23;;;;;;;13.88;7.85;;;;;;;;;;5073286;28;20029;-75
2022/10/23 05:22:51;;;;;;;13.00;7.97;;;;;;;;;;5072790;28;20485;-75
2022/10/23 05:25:16;;;;;;;13.70;8.05;;;;;;;;;;5072921;28;20021;-75
2022/10/23 05:27:42;;;;;;;15.90;8.23;;;;;;;;;;5072916;28;20048;-75
2022/10/23 05:30:08;;;;;;;13.27;8.27;;;;;;;;;;5072872;28;20028;-76
2022/10/23 05:32:34;;;;;;;13.75;7.68;;;;;;;;;;5073263;28;20028;-75
2022/10/23 05:35:05;;;;;;;15.13;8.20;;;;;;;;;;5077092;28;20458;-75
2022/10/23 05:37:31;;;;;;;16.27;9.02;;;;;;;;;;5076645;28;20162;-74
2022/10/23 05:39:56;;;;;;;15.45;9.23;;;;;;;;;;5076722;28;20099;-75
2022/10/23 05:42:21;;;;;;;16.58;9.65;;;;;;;;;;5076653;28;20024;-75
2022/10/23 05:44:47;;;;;;;15.63;9.13;;;;;;;;;;5075407;28;20024;-76
2022/10/23 05:47:20;;;;;;;13.15;7.95;;;;;;;;;;5076751;28;20591;-76
2022/10/23 05:49:45;;;;;;;17.10;8.15;;;;;;;;;;5076913;28;20028;-77
2022/10/23 05:52:11;;;;;;;12.45;7.22;;;;;;;;;;5076454;28;20036;-75
2022/10/23 05:54:36;;;;;;;11.50;7.00;;;;;;;;;;5076493;28;20031;-76
2022/10/23 05:57:02;;;;;;;13.88;7.65;;;;;;;;;;5076425;28;20086;-75
2022/10/23 05:59:27;;;;;;;12.50;6.93;;;;;;;;;;5076329;28;20095;-75
2022/10/23 06:01:52;;;;;;;14.73;7.30;;;;;;;;;;5075065;28;20103;-75
2022/10/23 06:04:18;;;;;;;13.05;7.63;;;;;;;;;;5076625;28;20027;-75
2022/10/23 06:06:45;;;;;;;13.18;7.97;;;;;;;;;;5076205;28;20089;-75
2022/10/23 06:09:10;;;;;;;15.27;8.73;;;;;;;;;;5076145;28;20478;-75
2022/10/23 06:11:35;;;;;;;13.98;8.20;;;;;;;;;;5076103;28;20024;-75
2022/10/23 06:14:01;;;;;;;18.15;8.70;;;;;;;;;;5076063;28;20492;-75
2022/10/23 06:16:26;;;;;;;13.32;8.35;;;;;;;;;;5076018;28;20025;-75
2022/10/23 06:18:52;;;;;;;13.80;7.50;;;;;;;;;;5074897;28;20020;-75
2022/10/23 06:21:17;;;;;;;19.38;8.00;;;;;;;;;;5075941;28;20103;-75
2022/10/23 06:23:44;;;;;;;12.80;7.75;;;;;;;;;;5075864;28;20052;-75
2022/10/23 06:26:11;;;;;;;16.10;9.43;;;;;;;;;;5075941;28;20032;-75
2022/10/23 06:28:37;;;;;;;23.75;9.50;;;;;;;;;;5076115;28;20025;-75
2022/10/23 06:31:04;;;;;;;16.85;9.40;;;;;;;;;;5075905;28;20532;-75
2022/10/23 06:33:30;;;;;;;17.67;8.23;;;;;;;;;;5075784;28;20446;-75
2022/10/23 06:35:55;;;;;;;12.82;8.02;;;;;;;;;;5075882;28;20115;-74
2022/10/23 06:38:20;;;;;;;12.05;7.78;;;;;;;;;;5075679;28;20024;-75
2022/10/23 06:40:52;;;;;;;16.88;7.90;;;;;;;;;;5074347;28;20119;-74
2022/10/23 06:43:17;;;;;;;13.98;7.00;;;;;;;;;;5075547;28;20020;-75
2022/10/23 06:45:42;;;;;;;12.90;7.68;;;;;;;;;;5074311;28;20028;-74
2022/10/23 06:48:07;;;;;;;13.77;8.07;;;;;;;;;;5074156;28;20013;-74
2022/10/23 06:50:33;;;;;;;15.48;9.38;;;;;;;;;;5075505;28;20033;-75
2022/10/23 06:53:02;;;;;;;15.10;9.45;;;;;;;;;;5075330;28;20028;-74
2022/10/23 06:55:28;;;;;;;20.23;8.73;;;;;;;;;;5075326;28;20104;-75
2022/10/23 06:57:54;;;;;;;16.05;9.15;;;;;;;;;;5073881;28;20020;-75
2022/10/23 07:00:20;;;;;;;16.30;9.52;;;;;;;;;;5073858;28;20028;-74
2022/10/23 07:02:45;;;;;;;15.30;8.43;;;;;;;;;;5075092;28;20055;-74
2022/10/23 07:05:11;;;;;;;18.40;8.70;;;;;;;;;;5075018;28;20504;-74
2022/10/23 07:07:36;;;;;;;31.55;9.50;;;;;;;;;;5074991;28;20016;-74
2022/10/23 07:10:01;;;;;;;15.43;8.98;;;;;;;;;;5075208;28;20021;-74
2022/10/23 07:12:27;;;;;;;17.25;9.45;;;;;;;;;;5074812;28;20103;-74
2022/10/23 07:14:53;;;;;;;16.33;9.25;;;;;;;;;;5074867;28;20112;-74
2022/10/23 07:17:18;;;;;;;18.73;10.13;;;;;;;;;;5073600;28;20469;-74
2022/10/23 07:19:46;;;;;;;16.95;9.00;;;;;;;;;;5073420;28;20033;-74
2022/10/23 07:22:12;;;;;;;18.95;8.45;;;;;;;;;;5073468;28;20031;-74
2022/10/23 07:24:38;;;;;;;18.17;9.38;;;;;;;;;;5074828;28;20021;-74
2022/10/23 07:27:04;;;;;;;15.25;8.43;;;;;;;;;;5074984;28;20021;-74
2022/10/23 07:29:30;;;;;;;14.95;8.00;;;;;;;;;;5074808;28;20362;-74
2022/10/23 07:31:56;;;;;;;13.77;8.10;;;;;;;;;;5074539;28;20020;-74
2022/10/23 07:34:21;;;;;;;12.38;7.57;;;;;;;;;;5073265;28;20055;-74
2022/10/23 07:36:46;;;;;;;15.52;7.47;;;;;;;;;;5074821;28;20063;-74
2022/10/23 07:39:12;;;;;;;16.75;8.00;;;;;;;;;;5074366;28;20028;-74
2022/10/23 07:41:38;;;;;;;17.35;7.63;;;;;;;;;;5073066;28;20043;-74
2022/10/23 07:44:03;;;;;;;13.25;7.85;;;;;;;;;;5074546;28;20016;-76
2022/10/23 07:46:29;;;;;;;15.07;7.25;;;;;;;;;;5074890;28;20024;-75
2022/10/23 07:48:54;;;;;;;13.60;7.13;;;;;;;;;;5075177;28;20031;-74
2022/10/23 07:51:19;;;;;;;12.13;6.20;;;;;;;;;;5073070;28;20039;-74
2022/10/23 07:53:45;;;;;;;15.52;7.32;;;;;;;;;;5074430;28;20028;-74
2022/10/23 07:56:17;;;;;;;10.50;6.25;;;;;;;;;;5074103;28;20082;-75
2022/10/23 07:58:43;;;;;;;13.13;6.88;;;;;;;;;;5072889;28;20481;-75
2022/10/23 08:01:15;;;;;;;10.43;6.55;;;;;;;;;;5074146;28;20054;-74
2022/10/23 08:03:40;;;;;;;11.35;6.85;;;;;;;;;;5073170;28;20051;-74
2022/10/23 08:06:06;;;;;;;14.02;6.43;;;;;;;;;;5072623;28;20116;-74
2022/10/23 08:08:31;;;;;;;11.52;6.68;;;;;;;;;;5074180;28;20539;-74
2022/10/23 08:10:56;;;;;;;9.95;6.28;;;;;;;;;;5073945;28;20028;-75
2022/10/23 08:13:22;;;;;;;10.95;6.05;;;;;;;;;;5072480;28;20538;-74
2022/10/23 08:15:51;;;;;;;10.77;6.07;;;;;;;;;;5073837;28;20077;-75
2022/10/23 08:18:17;;;;;;;9.55;6.53;;;;;;;;;;5074018;28;20541;-74
2022/10/23 08:20:45;;;;;;;11.18;6.30;;;;;;;;;;5073713;28;20068;-74
2022/10/23 08:23:11;;;;;;;10.90;6.28;;;;;;;;;;5073840;28;20035;-75
2022/10/23 08:25:48;;;;;;;10.35;6.18;;;;;;;;;;5073627;28;20054;-75
2022/10/23 08:28:15;;;;;;;10.88;5.68;;;;;;;;;;5072332;28;20547;-77
2022/10/23 08:30:40;;;;;;;10.88;5.78;;;;;;;;;;5073428;28;20028;-75
2022/10/23 08:33:06;;;;;;;10.30;6.18;;;;;;;;;;5072274;28;20027;-75
2022/10/23 08:35:36;;;;;;;10.50;5.55;;;;;;;;;;5072336;28;20073;-74
2022/10/23 08:38:02;;;;;;;7.70;4.47;;;;;;;;;;5073378;28;20436;-74
2022/10/23 08:40:27;;;;;;;9.10;5.82;;;;;;;;;;5073553;28;20020;-75
2022/10/23 08:43:01;;;;;;;11.40;5.55;;;;;;;;;;5073416;28;20028;-75
2022/10/23 08:45:39;;;;;;;11.27;5.93;;;;;;;;;;5073557;28;20074;-76
2022/10/23 08:48:27;;;;;;;8.88;5.50;;;;;;;;;;5072243;28;20424;-75
2022/10/23 08:50:56;;;;;;;10.93;5.95;;;;;;;;;;5073435;28;20032;-74
2022/10/23 08:53:27;;;;;;;9.13;5.60;;;;;;;;;;5071891;28;20074;-75
2022/10/23 08:56:16;;;;;;;9.98;5.20;;;;;;;;;;5073209;28;20021;-74
2022/10/23 08:58:49;;;;;;;8.40;5.05;;;;;;;;;;5071835;28;20086;-74
2022/10/23 09:01:33;;;;;;;8.63;4.88;;;;;;;;;;5071858;28;20032;-75
2022/10/23 09:03:59;;;;;;;10.32;5.47;;;;;;;;;;5073332;28;20028;-75
2022/10/23 09:06:35;;;;;;;9.73;5.35;;;;;;;;;;5073471;28;20024;-75
2022/10/23 09:09:21;;;;;;;8.50;4.75;;;;;;;;;;5072444;28;20020;-75
2022/10/23 09:12:02;;;;;;;8.32;5.00;;;;;;;;;;5072894;28;20081;-74
2022/10/23 09:14:48;;;;;;;7.90;4.47;;;;;;;;;;5071807;28;20507;-74
2022/10/23 09:17:19;;;;;;;8.05;4.90;;;;;;;;;;5072898;28;20029;-75
2022/10/23 09:19:45;;;;;;;6.35;4.18;;;;;;;;;;5073278;28;20032;-76
2022/10/23 09:22:12;;;;;;;8.32;4.43;;;;;;;;;;5071673;28;20097;-74
2022/10/23 09:24:41;;;;;;;7.05;3.95;;;;;;;;;;5073052;28;20046;-74
2022/10/23 09:27:13;;;;;;;8.95;5.13;;;;;;;;;;5071635;28;20027;-75
2022/10/23 09:29:46;;;;;;;8.35;3.78;;;;;;;;;;5073057;28;20028;-75
2022/10/23 09:32:12;;;;;;;7.43;4.20;;;;;;;;;;5073121;28;20025;-76
2022/10/23 09:34:50;;;;;;;14.70;4.25;;;;;;;;;;5073138;28;20264;-74
2022/10/23 09:37:27;;;;;;;5.32;3.45;;;;;;;;;;5071609;28;20032;-77
2022/10/23 09:40:15;;;;;;;5.57;3.60;;;;;;;;;;5072765;28;20025;-75
2022/10/23 09:42:58;;;;;;;6.10;3.45;;;;;;;;;;5072946;28;20542;-75
2022/10/23 09:45:27;;;;;;;9.10;3.75;;;;;;;;;;5072900;28;20499;-75
2022/10/23 09:48:17;;;;;;;7.68;3.40;;;;;;;;;;5072644;28;20028;-75
2022/10/23 09:51:21;;;;;;;6.53;3.35;;;;;;;;;;5072739;28;20071;-76
2022/10/23 09:53:56;;;;;;;7.90;3.53;;;;;;;;;;5070880;28;20047;-75
2022/10/23 09:56:22;;;;;;;4.95;3.45;;;;;;;;;;5071599;28;20032;-75
2022/10/23 09:58:57;;;;;;;7.35;3.67;;;;;;;;;;5072967;28;20074;-75
2022/10/23 10:01:28;;;;;;;6.90;3.80;;;;;;;;;;5072632;28;20028;-75
2022/10/23 10:03:54;;;;;;;5.10;3.65;;;;;;;;;;5073025;28;20085;-75
2022/10/23 10:06:26;;;;;;;9.70;3.72;;;;;;;;;;5072485;28;20080;-75
2022/10/23 10:08:55;;;;;;;7.68;3.70;;;;;;;;;;5072468;28;20081;-75
2022/10/23 10:11:40;;;;;;;6.40;3.70;;;;;;;;;;5072483;28;20027;-75
2022/10/23 10:14:41;;;;;;;12.65;3.80;;;;;;;;;;5072658;28;20497;-75
2022/10/23 10:17:37;;;;;;;7.50;3.70;;;;;;;;;;5072696;28;20052;-75
2022/10/23 10:20:03;;;;;;;6.13;3.47;;;;;;;;;;5073373;28;20101;-75
2022/10/23 10:22:45;;;;;;;7.05;3.95;;;;;;;;;;5076052;28;20024;-76
2022/10/23 10:25:20;;;;;;;8.25;4.10;;;;;;;;;;5076132;28;20398;-76
2022/10/23 10:27:59;;;;;;;9.35;4.00;;;;;;;;;;5074645;28;20024;-76
2022/10/23 10:30:26;;;;;;;9.25;3.70;;;;;;;;;;5075976;28;20059;-75
2022/10/23 10:33:14;;;;;;;7.47;3.30;;;;;;;;;;5075724;28;20031;-75
2022/10/23 10:35:56;;;;;;;8.20;3.63;;;;;;;;;;5074447;28;20064;-75
2022/10/23 10:38:39;;;;;;;5.65;3.70;;;;;;;;;;5075795;28;20035;-75
2022/10/23 10:41:40;;;;;;;6.20;3.70;;;;;;;;;;5075675;28;20504;-75
2022/10/23 10:44:36;;;;;;;7.70;3.33;;;;;;;;;;5075500;28;20481;-75
2022/10/23 10:47:13;;;;;;;6.75;3.08;;;;;;;;;;5075612;28;20025;-75
2022/10/23 10:50:07;;;;;;;4.63;3.00;;;;;;;;;;5075457;28;20028;-76
2022/10/23 10:52:38;;;;;;;7.07;3.20;;;;;;;;;;5075260;28;20056;-76
2022/10/23 10:55:31;;;;;;;5.13;3.10;;;;;;;;;;5075272;28;20478;-76
2022/10/23 10:58:01;;;;;;;6.18;3.50;;;;;;;;;;5075479;28;20390;-76
2022/10/23 11:00:29;;;;;;;5.47;3.10;;;;;;;;;;5075567;28;20024;-76
2022/10/23 11:03:16;;;;;;;6.57;3.67;;;;;;;;;;5073862;28;20025;-76
2022/10/23 11:05:44;;;;;;;6.05;3.05;;;;;;;;;;5075776;28;20029;-75
2022/10/23 11:08:20;;;;;;;4.65;3.03;;;;;;;;;;5073804;28;20025;-76
2022/10/23 11:10:50;;;;;;;5.57;3.13;;;;;;;;;;5073845;28;20489;-75
2022/10/23 11:13:27;;;;;;;5.80;3.10;;;;;;;;;;5074806;28;20393;-75
2022/10/23 11:16:00;;;;;;;5.22;2.60;;;;;;;;;;5073684;28;20059;-75
2022/10/23 11:18:29;;;;;;;4.85;2.67;;;;;;;;;;5074783;28;20020;-76
2022/10/23 11:21:07;;;;;;;5.47;3.38;;;;;;;;;;5074821;28;20028;-75
2022/10/23 11:23:46;;;;;;;4.07;2.80;;;;;;;;;;5073705;28;20059;-75
2022/10/23 11:26:45;;;;;;;8.05;3.40;;;;;;;;;;5075060;28;20021;-75
2022/10/23 11:29:39;;;;;;;4.72;2.85;;;;;;;;;;5075346;28;20028;-74
2022/10/23 11:32:38;;;;;;;4.85;2.88;;;;;;;;;;5074210;28;20028;-74
2022/10/23 11:35:20;;;;;;;4.43;2.70;;;;;;;;;;5074904;28;20048;-75
2022/10/23 11:37:56;;;;;;;4.72;2.70;;;;;;;;;;5074809;28;20024;-75
2022/10/23 11:40:23;;;;;;;9.15;3.30;;;;;;;;;;5074449;28;20127;-75
2022/10/23 11:42:50;;;;;;;7.85;3.00;;;;;;;;;;5073085;28;20047;-75
2022/10/23 11:45:33;;;;;;;5.38;3.15;;;;;;;;;;5073458;28;20024;-75
2022/10/23 11:48:02;;;;;;;4.57;3.17;;;;;;;;;;5074593;28;20020;-75
2022/10/23 11:50:49;;;;;;;4.43;3.10;;;;;;;;;;5074115;28;20029;-75
2022/10/23 11:53:29;;;;;;;5.55;3.20;;;;;;;;;;5072782;28;20157;-75
2022/10/23 11:56:24;;;;;;;5.65;3.15;;;;;;;;;;5074469;28;20062;-75
2022/10/23 11:59:18;;;;;;;5.13;3.10;;;;;;;;;;5072770;28;20031;-75
2022/10/23 12:01:44;;;;;;;;;;;;;;;;;;5074363;28;20020;-75
2022/10/23 12:04:12;;;;;;;7.00;2.97;;;;;;;;;;5074700;28;20376;-75
2022/10/23 12:06:40;;;;;;;4.85;3.33;;;;;;;;;;5074156;28;20023;-75
2022/10/23 12:09:30;;;;;;;5.18;3.17;;;;;;;;;;5074056;28;20021;-75
2022/10/23 12:12:07;;;;;;;4.95;3.08;;;;;;;;;;5072451;28;20024;-75
2022/10/23 12:14:53;;;;;;;5.03;3.05;;;;;;;;;;5073669;28;20490;-75
2022/10/23 12:17:21;;;;;;;3.88;2.67;;;;;;;;;;5072428;28;20397;-75
2022/10/23 12:20:00;;;;;;;4.40;3.17;;;;;;;;;;5073886;28;20032;-75
2022/10/23 12:22:38;;;;;;;6.13;3.13;;;;;;;;;;5073670;28;20024;-75
2022/10/23 12:25:30;;;;;;;7.07;3.38;;;;;;;;;;5073701;28;20028;-74
2022/10/23 12:28:23;;;;;;;7.32;3.38;;;;;;;;;;5073907;28;20024;-76
2022/10/23 12:31:02;;;;;;;5.15;2.90;;;;;;;;;;5073839;28;20029;-75
2022/10/23 12:34:00;;;;;;;4.63;3.35;;;;;;;;;;5073586;28;20103;-75
2022/10/23 12:36:53;;;;;;;5.22;3.03;;;;;;;;;;5072246;28;20043;-75
2022/10/23 12:39:36;;;;;;;6.13;3.25;;;;;;;;;;5055228;28;20068;-75
2022/10/23 12:42:02;;;;;;;5.88;3.85;;;;;;;;;;5072599;28;20066;-75
2022/10/23 12:44:28;;;;;;;6.65;3.10;;;;;;;;;;5073294;28;20020;-75
2022/10/23 12:46:56;;;;;;;5.97;3.28;;;;;;;;;;5072110;28;20569;-76
2022/10/23 12:49:24;;;;;;;6.38;2.95;;;;;;;;;;5071989;28;20017;-75
2022/10/23 12:52:00;;;;;;;4.60;2.88;;;;;;;;;;5073126;28;20032;-74
2022/10/23 12:54:26;;;;;;;4.45;2.90;;;;;;;;;;5073120;28;20032;-75
2022/10/23 12:56:52;;;;;;;6.72;3.08;;;;;;;;;;5073051;28;20059;-75
2022/10/23 12:59:22;;;;;;;7.35;3.38;;;;;;;;;;5073042;28;20074;-75
2022/10/23 13:01:48;;;;;;;5.75;3.10;;;;;;;;;;5071727;28;20030;-74
2022/10/23 13:04:27;;;;;;;12.55;3.13;;;;;;;;;;5073642;28;20377;-75
2022/10/23 13:06:58;;;;;;;5.93;2.95;;;;;;;;;;5073268;28;20059;-75
2022/10/23 13:09:43;;;;;;;4.80;3.10;;;;;;;;;;5072971;28;20020;-75
2022/10/23 13:12:26;;;;;;;5.75;3.13;;;;;;;;;;5072930;28;20025;-75
2022/10/23 13:15:06;;;;;;;8.05;3.50;;;;;;;;;;5073196;28;20504;-75
2022/10/23 13:17:40;;;;;;;6.93;3.40;;;;;;;;;;5071730;28;20064;-75
2022/10/23 13:20:29;;;;;;;6.57;3.08;;;;;;;;;;5071706;28;20025;-75
2022/10/23 13:23:19;;;;;;;6.13;3.15;;;;;;;;;;5072817;28;20547;-75
2022/10/23 13:25:55;;;;;;;6.80;3.13;;;;;;;;;;5072421;28;20044;-74
2022/10/23 13:28:39;;;;;;;5.72;3.40;;;;;;;;;;5071575;28;20023;-74
2022/10/23 13:31:06;;;;;;;8.68;3.92;;;;;;;;;;5072869;28;20562;-75
2022/10/23 13:33:34;;;;;;;4.50;3.25;;;;;;;;;;5072796;28;20055;-75
2022/10/23 13:36:20;;;;;;;5.28;3.50;;;;;;;;;;5072070;28;20025;-74
2022/10/23 13:38:59;;;;;;;7.18;3.28;;;;;;;;;;5070963;28;20463;-74
2022/10/23 13:41:27;;;;;;;5.78;3.85;;;;;;;;;;5072772;28;20496;-75
2022/10/23 13:43:52;;;;;;;8.30;4.43;;;;;;;;;;5072834;28;20555;-76
2022/10/23 13:46:20;;;;;;;7.22;3.60;;;;;;;;;;5071348;28;20065;-76
2022/10/23 13:48:46;;;;;;;10.35;3.70;;;;;;;;;;5072544;28;20082;-74
2022/10/23 13:51:15;;;;;;;7.88;4.28;;;;;;;;;;5072443;28;20035;-74
2022/10/23 13:53:40;;;;;;;7.15;3.60;;;;;;;;;;5071923;28;20016;-74
2022/10/23 13:56:08;;;;;;;7.50;4.05;;;;;;;;;;5075453;28;20428;-75
2022/10/23 13:58:33;;;;;;;6.57;4.00;;;;;;;;;;5075131;28;20024;-75
2022/10/23 14:00:58;;;;;;;5.55;3.72;;;;;;;;;;5076340;28;20070;-73
2022/10/23 14:03:24;;;;;;;6.18;3.88;;;;;;;;;;5076066;28;20389;-75
2022/10/23 14:05:50;;;;;;;7.90;4.30;;;;;;;;;;5076520;28;20028;-75
2022/10/23 14:08:16;;;;;;;7.10;4.18;;;;;;;;;;5076269;28;20021;-75
2022/10/23 14:10:41;;;;;;;4.82;3.17;;;;;;;;;;5076124;28;20039;-74
2022/10/23 14:13:06;;;;;;;4.80;3.03;;;;;;;;;;5076136;28;20105;-76
2022/10/23 14:15:32;;;;;;;4.72;3.17;;;;;;;;;;5076224;28;20162;-76
2022/10/23 14:17:57;;;;;;;5.90;3.85;;;;;;;;;;5075917;28;20386;-75
2022/10/23 14:20:22;;;;;;;5.15;3.33;;;;;;;;;;5075014;28;20038;-75
2022/10/23 14:22:47;;;;;;;6.60;3.67;;;;;;;;;;5074586;28;20016;-74
2022/10/23 14:25:13;;;;;;;6.60;4.05;;;;;;;;;;5074678;28;20089;-74
2022/10/23 14:27:38;;;;;;;3.90;2.78;;;;;;;;;;5076145;28;20389;-74
2022/10/23 14:30:04;;;;;;;5.57;3.03;;;;;;;;;;5074514;28;20012;-75
2022/10/23 14:32:29;;;;;;;5.43;3.10;;;;;;;;;;5075802;28;20025;-75
2022/10/23 14:34:55;;;;;;;5.30;3.33;;;;;;;;;;5075718;28;20022;-75
2022/10/23 14:37:20;;;;;;;5.82;3.20;;;;;;;;;;5076025;28;20063;-76
2022/10/23 14:39:46;;;;;;;5.43;3.42;;;;;;;;;;5075912;28;20020;-75
2022/10/23 14:42:12;;;;;;;7.13;3.47;;;;;;;;;;5075821;28;20028;-75
2022/10/23 14:44:37;;;;;;;7.40;4.25;;;;;;;;;;5075824;28;20024;-75
2022/10/23 14:47:03;;;;;;;5.97;3.53;;;;;;;;;;5075761;28;20069;-75
2022/10/23 14:49:29;;;;;;;7.75;4.20;;;;;;;;;;5075521;28;20032;-75
2022/10/23 14:51:54;;;;;;;6.20;3.72;;;;;;;;;;5075431;28;20028;-74
2022/10/23 14:54:19;;;;;;;4.97;3.50;;;;;;;;;;5074125;28;20036;-75
2022/10/23 14:56:45;;;;;;;9.05;3.55;;;;;;;;;;5074078;28;20563;-76
2022/10/23 14:59:11;;;;;;;5.95;3.08;;;;;;;;;;5075243;28;20040;-75